Hlavní strana
METAR-TAF:

METAR-TAF

Letiště :

Stokmarknes, Norsko

zeměpisná šířka: 68-35N, zeměpisná délka: 015-01E, výška: 0 m

Aktuální stav počasí

Zpráva byla vytvořena před 28 minutami, v 13:20 UTC
vítr z různých směrů 2 kt
Teplota 10°C
Vlhkost vzduchu 76%
Tlak 1025 hPa
Viditelnost 10 km a více
Skoro jasno ve výšce 2500 ft
Polojasno ve výšce 3200 ft
Oblačno až skoro zataženo ve výšce 4000 ft
přeháňky v blízkosti

METAR: ENSK 261320Z VRB02KT 9999 VCSH FEW025 SCT032 BKN040 10/06 Q1025

Čas: 15:48 (13:48 UTC)


TAF: chybějící

Stav a předpovědi počasí z více než 4 000 letišť (zprávy METAR a TAF).

Červené a žluté tečky na mapě představují dostupné meteorologické stanice.

Když kurzor umístíte na tečku, zobrazí se název stanice.

Pak kliknutím zobrazíte stav a předpověď počasí.

Chcete-li změnit mapu, kliknutím na zelené tlačítko se znaménkem +mapu přiblížíte, kliknutím na zelené tlačítko se znaménkem – mapu oddálíte a kliknutím na zelené šipky přejdete na sousední mapy.


METAR-TAF: